sensor_id;sensor_type;location;lat;lon;timestamp;P1;durP1;ratioP1;P2;durP2;ratioP2
11346;SDS011;5728;42.722;23.258;2023-07-16T00:00:08;16.45;;;10.05;;
11346;SDS011;5728;42.722;23.258;2023-07-16T00:02:35;13.65;;;9.25;;
11346;SDS011;5728;42.722;23.258;2023-07-16T00:05:02;15.18;;;9.10;;
11346;SDS011;5728;42.722;23.258;2023-07-16T00:07:31;9.70;;;8.63;;
11346;SDS011;5728;42.722;23.258;2023-07-16T00:09:58;11.88;;;9.45;;
11346;SDS011;5728;42.722;23.258;2023-07-16T00:12:24;15.52;;;9.98;;
11346;SDS011;5728;42.722;23.258;2023-07-16T00:14:51;11.45;;;9.80;;
11346;SDS011;5728;42.722;23.258;2023-07-16T00:17:18;17.90;;;10.43;;
11346;SDS011;5728;42.722;23.258;2023-07-16T00:19:44;15.73;;;10.43;;
11346;SDS011;5728;42.722;23.258;2023-07-16T00:22:11;11.95;;;9.63;;
11346;SDS011;5728;42.722;23.258;2023-07-16T00:24:39;12.70;;;9.15;;
11346;SDS011;5728;42.722;23.258;2023-07-16T00:27:06;15.00;;;9.45;;
11346;SDS011;5728;42.722;23.258;2023-07-16T00:29:33;12.05;;;9.55;;
11346;SDS011;5728;42.722;23.258;2023-07-16T00:31:59;11.60;;;9.02;;
11346;SDS011;5728;42.722;23.258;2023-07-16T00:34:26;15.00;;;9.32;;
11346;SDS011;5728;42.722;23.258;2023-07-16T00:36:53;12.45;;;9.70;;
11346;SDS011;5728;42.722;23.258;2023-07-16T00:39:26;15.95;;;9.90;;
11346;SDS011;5728;42.722;23.258;2023-07-16T00:41:54;14.25;;;10.48;;
11346;SDS011;5728;42.722;23.258;2023-07-16T00:44:21;11.82;;;8.95;;
11346;SDS011;5728;42.722;23.258;2023-07-16T00:46:48;10.88;;;9.30;;
11346;SDS011;5728;42.722;23.258;2023-07-16T00:49:15;24.30;;;9.00;;
11346;SDS011;5728;42.722;23.258;2023-07-16T00:51:42;13.82;;;9.60;;
11346;SDS011;5728;42.722;23.258;2023-07-16T00:54:09;12.90;;;10.55;;
11346;SDS011;5728;42.722;23.258;2023-07-16T00:56:37;15.50;;;9.45;;
11346;SDS011;5728;42.722;23.258;2023-07-16T00:59:05;11.15;;;9.30;;
11346;SDS011;5728;42.722;23.258;2023-07-16T01:01:32;14.23;;;9.75;;
11346;SDS011;5728;42.722;23.258;2023-07-16T01:03:59;15.52;;;10.18;;
11346;SDS011;5728;42.722;23.258;2023-07-16T01:06:28;14.63;;;10.30;;
11346;SDS011;5728;42.722;23.258;2023-07-16T01:09:01;12.40;;;9.32;;
11346;SDS011;5728;42.722;23.258;2023-07-16T01:11:29;12.65;;;9.98;;
11346;SDS011;5728;42.722;23.258;2023-07-16T01:14:00;13.65;;;9.98;;
11346;SDS011;5728;42.722;23.258;2023-07-16T01:16:29;23.25;;;9.68;;
11346;SDS011;5728;42.722;23.258;2023-07-16T01:18:57;14.32;;;10.20;;
11346;SDS011;5728;42.722;23.258;2023-07-16T01:21:24;9.93;;;8.77;;
11346;SDS011;5728;42.722;23.258;2023-07-16T01:24:04;10.82;;;9.55;;
11346;SDS011;5728;42.722;23.258;2023-07-16T01:27:04;10.10;;;8.95;;
11346;SDS011;5728;42.722;23.258;2023-07-16T01:29:50;12.02;;;9.18;;
11346;SDS011;5728;42.722;23.258;2023-07-16T01:32:20;12.07;;;9.60;;
11346;SDS011;5728;42.722;23.258;2023-07-16T01:34:48;10.90;;;9.80;;
11346;SDS011;5728;42.722;23.258;2023-07-16T01:37:17;11.80;;;9.23;;
11346;SDS011;5728;42.722;23.258;2023-07-16T01:39:44;15.98;;;10.07;;
11346;SDS011;5728;42.722;23.258;2023-07-16T01:42:11;16.85;;;9.02;;
11346;SDS011;5728;42.722;23.258;2023-07-16T01:44:38;17.00;;;10.48;;
11346;SDS011;5728;42.722;23.258;2023-07-16T01:47:08;12.38;;;9.48;;
11346;SDS011;5728;42.722;23.258;2023-07-16T01:49:36;12.30;;;9.70;;
11346;SDS011;5728;42.722;23.258;2023-07-16T01:52:03;16.13;;;9.30;;
11346;SDS011;5728;42.722;23.258;2023-07-16T01:54:31;12.27;;;9.68;;
11346;SDS011;5728;42.722;23.258;2023-07-16T01:56:58;13.82;;;9.50;;
11346;SDS011;5728;42.722;23.258;2023-07-16T01:59:24;10.40;;;9.30;;
11346;SDS011;5728;42.722;23.258;2023-07-16T02:01:51;15.38;;;10.10;;
11346;SDS011;5728;42.722;23.258;2023-07-16T02:04:19;17.17;;;9.27;;
11346;SDS011;5728;42.722;23.258;2023-07-16T02:06:46;12.13;;;9.50;;
11346;SDS011;5728;42.722;23.258;2023-07-16T02:09:14;14.73;;;10.02;;
11346;SDS011;5728;42.722;23.258;2023-07-16T02:11:40;13.80;;;9.80;;
11346;SDS011;5728;42.722;23.258;2023-07-16T02:14:07;13.55;;;9.77;;
11346;SDS011;5728;42.722;23.258;2023-07-16T02:16:34;10.82;;;9.73;;
11346;SDS011;5728;42.722;23.258;2023-07-16T02:19:01;12.60;;;10.20;;
11346;SDS011;5728;42.722;23.258;2023-07-16T02:21:29;10.85;;;9.40;;
11346;SDS011;5728;42.722;23.258;2023-07-16T02:23:55;13.25;;;10.52;;
11346;SDS011;5728;42.722;23.258;2023-07-16T02:26:22;12.68;;;9.80;;
11346;SDS011;5728;42.722;23.258;2023-07-16T02:28:49;16.75;;;9.77;;
11346;SDS011;5728;42.722;23.258;2023-07-16T02:31:16;11.05;;;9.30;;
11346;SDS011;5728;42.722;23.258;2023-07-16T02:33:42;12.20;;;7.78;;
11346;SDS011;5728;42.722;23.258;2023-07-16T02:36:09;13.77;;;7.85;;
11346;SDS011;5728;42.722;23.258;2023-07-16T02:38:37;13.07;;;6.85;;
11346;SDS011;5728;42.722;23.258;2023-07-16T02:41:04;9.38;;;6.47;;
11346;SDS011;5728;42.722;23.258;2023-07-16T02:43:31;7.72;;;6.88;;
11346;SDS011;5728;42.722;23.258;2023-07-16T02:45:57;11.70;;;7.13;;
11346;SDS011;5728;42.722;23.258;2023-07-16T02:48:24;9.43;;;7.32;;
11346;SDS011;5728;42.722;23.258;2023-07-16T02:50:51;10.38;;;7.60;;
11346;SDS011;5728;42.722;23.258;2023-07-16T02:53:17;9.82;;;7.07;;
11346;SDS011;5728;42.722;23.258;2023-07-16T02:55:46;11.93;;;7.05;;
11346;SDS011;5728;42.722;23.258;2023-07-16T02:58:13;10.02;;;6.40;;
11346;SDS011;5728;42.722;23.258;2023-07-16T03:00:39;10.38;;;7.60;;
11346;SDS011;5728;42.722;23.258;2023-07-16T03:03:06;11.65;;;7.60;;
11346;SDS011;5728;42.722;23.258;2023-07-16T03:05:33;10.93;;;7.68;;
11346;SDS011;5728;42.722;23.258;2023-07-16T03:08:00;10.30;;;7.85;;
11346;SDS011;5728;42.722;23.258;2023-07-16T03:10:26;12.52;;;8.18;;
11346;SDS011;5728;42.722;23.258;2023-07-16T03:12:54;9.63;;;7.55;;
11346;SDS011;5728;42.722;23.258;2023-07-16T03:15:21;14.20;;;8.93;;
11346;SDS011;5728;42.722;23.258;2023-07-16T03:17:48;17.35;;;8.63;;
11346;SDS011;5728;42.722;23.258;2023-07-16T03:20:15;9.85;;;8.75;;
11346;SDS011;5728;42.722;23.258;2023-07-16T03:22:41;11.23;;;8.80;;
11346;SDS011;5728;42.722;23.258;2023-07-16T03:25:08;13.75;;;8.55;;
11346;SDS011;5728;42.722;23.258;2023-07-16T03:27:35;13.07;;;8.25;;
11346;SDS011;5728;42.722;23.258;2023-07-16T03:30:03;12.15;;;9.00;;
11346;SDS011;5728;42.722;23.258;2023-07-16T03:32:31;17.42;;;10.27;;
11346;SDS011;5728;42.722;23.258;2023-07-16T03:34:58;13.02;;;10.15;;
11346;SDS011;5728;42.722;23.258;2023-07-16T03:37:24;10.15;;;8.95;;
11346;SDS011;5728;42.722;23.258;2023-07-16T03:39:51;12.98;;;9.18;;
11346;SDS011;5728;42.722;23.258;2023-07-16T03:42:18;12.32;;;9.55;;
11346;SDS011;5728;42.722;23.258;2023-07-16T03:44:47;12.88;;;8.55;;
11346;SDS011;5728;42.722;23.258;2023-07-16T03:47:15;11.35;;;8.75;;
11346;SDS011;5728;42.722;23.258;2023-07-16T03:49:42;10.52;;;8.60;;
11346;SDS011;5728;42.722;23.258;2023-07-16T03:52:08;16.35;;;8.90;;
11346;SDS011;5728;42.722;23.258;2023-07-16T03:54:35;11.23;;;7.65;;
11346;SDS011;5728;42.722;23.258;2023-07-16T03:57:02;12.60;;;7.22;;
11346;SDS011;5728;42.722;23.258;2023-07-16T03:59:29;10.90;;;6.80;;
11346;SDS011;5728;42.722;23.258;2023-07-16T04:01:56;9.95;;;7.13;;
11346;SDS011;5728;42.722;23.258;2023-07-16T04:04:24;7.82;;;6.20;;
11346;SDS011;5728;42.722;23.258;2023-07-16T04:06:51;6.57;;;5.63;;
11346;SDS011;5728;42.722;23.258;2023-07-16T04:09:18;8.68;;;5.45;;
11346;SDS011;5728;42.722;23.258;2023-07-16T04:11:44;6.97;;;4.85;;
11346;SDS011;5728;42.722;23.258;2023-07-16T04:14:11;10.52;;;5.70;;
11346;SDS011;5728;42.722;23.258;2023-07-16T04:16:38;8.60;;;5.95;;
11346;SDS011;5728;42.722;23.258;2023-07-16T04:19:04;5.82;;;5.15;;
11346;SDS011;5728;42.722;23.258;2023-07-16T04:21:33;7.70;;;4.85;;
11346;SDS011;5728;42.722;23.258;2023-07-16T04:24:01;7.35;;;4.93;;
11346;SDS011;5728;42.722;23.258;2023-07-16T04:26:28;6.63;;;5.22;;
11346;SDS011;5728;42.722;23.258;2023-07-16T04:28:55;7.70;;;5.30;;
11346;SDS011;5728;42.722;23.258;2023-07-16T04:31:22;8.63;;;5.57;;
11346;SDS011;5728;42.722;23.258;2023-07-16T04:33:49;9.68;;;4.32;;
11346;SDS011;5728;42.722;23.258;2023-07-16T04:36:16;7.93;;;4.47;;
11346;SDS011;5728;42.722;23.258;2023-07-16T04:38:44;14.20;;;5.35;;
11346;SDS011;5728;42.722;23.258;2023-07-16T04:41:11;12.27;;;4.80;;
11346;SDS011;5728;42.722;23.258;2023-07-16T04:43:38;7.50;;;4.82;;
11346;SDS011;5728;42.722;23.258;2023-07-16T04:46:05;7.82;;;5.45;;
11346;SDS011;5728;42.722;23.258;2023-07-16T04:48:32;6.22;;;4.70;;
11346;SDS011;5728;42.722;23.258;2023-07-16T04:50:58;7.05;;;4.55;;
11346;SDS011;5728;42.722;23.258;2023-07-16T04:53:25;9.35;;;4.72;;
11346;SDS011;5728;42.722;23.258;2023-07-16T04:55:53;12.32;;;5.18;;
11346;SDS011;5728;42.722;23.258;2023-07-16T04:58:22;10.25;;;4.85;;
11346;SDS011;5728;42.722;23.258;2023-07-16T05:00:48;7.22;;;4.60;;
11346;SDS011;5728;42.722;23.258;2023-07-16T05:03:16;5.07;;;4.22;;
11346;SDS011;5728;42.722;23.258;2023-07-16T05:05:43;6.97;;;4.90;;
11346;SDS011;5728;42.722;23.258;2023-07-16T05:08:09;11.05;;;4.80;;
11346;SDS011;5728;42.722;23.258;2023-07-16T05:10:36;9.95;;;4.45;;
11346;SDS011;5728;42.722;23.258;2023-07-16T05:13:04;11.05;;;5.80;;
11346;SDS011;5728;42.722;23.258;2023-07-16T05:15:31;11.80;;;5.72;;
11346;SDS011;5728;42.722;23.258;2023-07-16T05:17:58;8.82;;;5.50;;
11346;SDS011;5728;42.722;23.258;2023-07-16T05:20:25;8.68;;;5.03;;
11346;SDS011;5728;42.722;23.258;2023-07-16T05:22:52;7.15;;;4.90;;
11346;SDS011;5728;42.722;23.258;2023-07-16T05:25:19;6.03;;;5.05;;
11346;SDS011;5728;42.722;23.258;2023-07-16T05:27:46;13.02;;;5.32;;
11346;SDS011;5728;42.722;23.258;2023-07-16T05:30:14;8.98;;;4.90;;
11346;SDS011;5728;42.722;23.258;2023-07-16T05:32:42;8.65;;;5.68;;
11346;SDS011;5728;42.722;23.258;2023-07-16T05:35:09;9.48;;;5.90;;
11346;SDS011;5728;42.722;23.258;2023-07-16T05:37:36;7.95;;;4.18;;
11346;SDS011;5728;42.722;23.258;2023-07-16T05:40:03;6.82;;;4.93;;
11346;SDS011;5728;42.722;23.258;2023-07-16T05:42:33;7.30;;;4.63;;
11346;SDS011;5728;42.722;23.258;2023-07-16T05:45:00;7.72;;;4.68;;
11346;SDS011;5728;42.722;23.258;2023-07-16T05:47:28;6.60;;;4.30;;
11346;SDS011;5728;42.722;23.258;2023-07-16T05:49:55;6.32;;;4.60;;
11346;SDS011;5728;42.722;23.258;2023-07-16T05:52:22;14.30;;;5.03;;
11346;SDS011;5728;42.722;23.258;2023-07-16T05:54:49;6.88;;;5.00;;
11346;SDS011;5728;42.722;23.258;2023-07-16T05:57:16;11.35;;;5.00;;
11346;SDS011;5728;42.722;23.258;2023-07-16T05:59:43;5.95;;;4.45;;
11346;SDS011;5728;42.722;23.258;2023-07-16T06:02:10;9.52;;;5.03;;
11346;SDS011;5728;42.722;23.258;2023-07-16T06:04:38;7.53;;;4.10;;
11346;SDS011;5728;42.722;23.258;2023-07-16T06:07:06;6.38;;;3.75;;
11346;SDS011;5728;42.722;23.258;2023-07-16T06:09:33;10.00;;;4.03;;
11346;SDS011;5728;42.722;23.258;2023-07-16T06:11:59;6.68;;;4.10;;
11346;SDS011;5728;42.722;23.258;2023-07-16T06:14:26;7.07;;;4.00;;
11346;SDS011;5728;42.722;23.258;2023-07-16T06:16:53;8.18;;;4.75;;
11346;SDS011;5728;42.722;23.258;2023-07-16T06:19:20;6.70;;;4.40;;
11346;SDS011;5728;42.722;23.258;2023-07-16T06:21:48;6.32;;;4.32;;
11346;SDS011;5728;42.722;23.258;2023-07-16T06:24:15;9.90;;;4.55;;
11346;SDS011;5728;42.722;23.258;2023-07-16T06:26:42;4.80;;;4.05;;
11346;SDS011;5728;42.722;23.258;2023-07-16T06:29:09;5.95;;;4.75;;
11346;SDS011;5728;42.722;23.258;2023-07-16T06:31:35;6.15;;;4.45;;
11346;SDS011;5728;42.722;23.258;2023-07-16T06:34:02;4.93;;;4.40;;
11346;SDS011;5728;42.722;23.258;2023-07-16T06:36:29;6.82;;;4.82;;
11346;SDS011;5728;42.722;23.258;2023-07-16T06:38:57;7.07;;;4.43;;
11346;SDS011;5728;42.722;23.258;2023-07-16T06:41:25;6.30;;;4.72;;
11346;SDS011;5728;42.722;23.258;2023-07-16T06:43:52;9.27;;;4.90;;
11346;SDS011;5728;42.722;23.258;2023-07-16T06:46:18;14.85;;;4.68;;
11346;SDS011;5728;42.722;23.258;2023-07-16T06:48:45;7.53;;;4.80;;
11346;SDS011;5728;42.722;23.258;2023-07-16T06:51:12;8.40;;;4.90;;
11346;SDS011;5728;42.722;23.258;2023-07-16T06:53:39;5.72;;;4.60;;
11346;SDS011;5728;42.722;23.258;2023-07-16T06:56:07;7.18;;;4.63;;
11346;SDS011;5728;42.722;23.258;2023-07-16T06:58:34;7.10;;;5.03;;
11346;SDS011;5728;42.722;23.258;2023-07-16T07:01:01;7.97;;;4.32;;
11346;SDS011;5728;42.722;23.258;2023-07-16T07:03:28;7.13;;;4.60;;
11346;SDS011;5728;42.722;23.258;2023-07-16T07:05:55;12.05;;;4.97;;
11346;SDS011;5728;42.722;23.258;2023-07-16T07:08:22;7.03;;;5.05;;
11346;SDS011;5728;42.722;23.258;2023-07-16T07:10:49;8.32;;;5.25;;
11346;SDS011;5728;42.722;23.258;2023-07-16T07:13:17;5.57;;;5.00;;
11346;SDS011;5728;42.722;23.258;2023-07-16T07:15:44;5.97;;;4.53;;
11346;SDS011;5728;42.722;23.258;2023-07-16T07:18:10;6.38;;;4.45;;
11346;SDS011;5728;42.722;23.258;2023-07-16T07:20:37;12.32;;;5.05;;
11346;SDS011;5728;42.722;23.258;2023-07-16T07:23:05;5.43;;;4.88;;
11346;SDS011;5728;42.722;23.258;2023-07-16T07:25:32;9.30;;;5.10;;
11346;SDS011;5728;42.722;23.258;2023-07-16T07:27:59;9.95;;;5.00;;
11346;SDS011;5728;42.722;23.258;2023-07-16T07:30:27;7.80;;;4.10;;
11346;SDS011;5728;42.722;23.258;2023-07-16T07:32:54;5.97;;;5.18;;
11346;SDS011;5728;42.722;23.258;2023-07-16T07:35:21;10.45;;;5.10;;
11346;SDS011;5728;42.722;23.258;2023-07-16T07:37:47;6.50;;;4.40;;
11346;SDS011;5728;42.722;23.258;2023-07-16T07:40:14;7.00;;;5.40;;
11346;SDS011;5728;42.722;23.258;2023-07-16T07:42:42;13.82;;;5.15;;
11346;SDS011;5728;42.722;23.258;2023-07-16T07:45:09;8.32;;;4.43;;
11346;SDS011;5728;42.722;23.258;2023-07-16T07:47:37;5.85;;;5.07;;
11346;SDS011;5728;42.722;23.258;2023-07-16T07:50:05;11.55;;;5.70;;
11346;SDS011;5728;42.722;23.258;2023-07-16T07:52:32;6.13;;;5.03;;
11346;SDS011;5728;42.722;23.258;2023-07-16T07:54:59;5.63;;;4.82;;
11346;SDS011;5728;42.722;23.258;2023-07-16T07:57:26;7.55;;;5.55;;
11346;SDS011;5728;42.722;23.258;2023-07-16T07:59:52;8.05;;;5.25;;
11346;SDS011;5728;42.722;23.258;2023-07-16T08:02:22;11.88;;;4.82;;
11346;SDS011;5728;42.722;23.258;2023-07-16T08:04:51;6.57;;;5.25;;
11346;SDS011;5728;42.722;23.258;2023-07-16T08:07:18;5.80;;;5.07;;
11346;SDS011;5728;42.722;23.258;2023-07-16T08:09:45;11.10;;;5.05;;
11346;SDS011;5728;42.722;23.258;2023-07-16T08:12:12;7.95;;;5.30;;
11346;SDS011;5728;42.722;23.258;2023-07-16T08:14:39;6.90;;;4.90;;
11346;SDS011;5728;42.722;23.258;2023-07-16T08:17:06;6.10;;;4.80;;
11346;SDS011;5728;42.722;23.258;2023-07-16T08:19:33;9.27;;;5.45;;
11346;SDS011;5728;42.722;23.258;2023-07-16T08:22:02;9.48;;;5.70;;
11346;SDS011;5728;42.722;23.258;2023-07-16T08:24:29;7.85;;;5.72;;
11346;SDS011;5728;42.722;23.258;2023-07-16T08:26:55;8.68;;;5.55;;
11346;SDS011;5728;42.722;23.258;2023-07-16T08:29:22;11.93;;;5.63;;
11346;SDS011;5728;42.722;23.258;2023-07-16T08:31:50;6.45;;;5.75;;
11346;SDS011;5728;42.722;23.258;2023-07-16T08:34:17;6.97;;;5.07;;
11346;SDS011;5728;42.722;23.258;2023-07-16T08:36:44;7.32;;;5.30;;
11346;SDS011;5728;42.722;23.258;2023-07-16T08:39:12;8.13;;;5.43;;
11346;SDS011;5728;42.722;23.258;2023-07-16T08:41:39;6.15;;;5.35;;
11346;SDS011;5728;42.722;23.258;2023-07-16T08:44:05;11.25;;;5.97;;
11346;SDS011;5728;42.722;23.258;2023-07-16T08:46:32;9.38;;;5.07;;
11346;SDS011;5728;42.722;23.258;2023-07-16T08:48:59;11.57;;;5.95;;
11346;SDS011;5728;42.722;23.258;2023-07-16T08:51:28;6.15;;;5.55;;
11346;SDS011;5728;42.722;23.258;2023-07-16T08:53:56;9.77;;;5.93;;
11346;SDS011;5728;42.722;23.258;2023-07-16T08:56:25;11.07;;;6.07;;
11346;SDS011;5728;42.722;23.258;2023-07-16T08:58:53;8.10;;;6.03;;
11346;SDS011;5728;42.722;23.258;2023-07-16T09:01:22;7.60;;;5.40;;
11346;SDS011;5728;42.722;23.258;2023-07-16T09:03:49;12.45;;;6.20;;
11346;SDS011;5728;42.722;23.258;2023-07-16T09:06:16;7.97;;;6.00;;
11346;SDS011;5728;42.722;23.258;2023-07-16T09:08:43;10.65;;;6.03;;
11346;SDS011;5728;42.722;23.258;2023-07-16T09:11:11;13.13;;;6.13;;
11346;SDS011;5728;42.722;23.258;2023-07-16T09:13:44;10.23;;;5.97;;
11346;SDS011;5728;42.722;23.258;2023-07-16T09:16:11;7.72;;;5.85;;
11346;SDS011;5728;42.722;23.258;2023-07-16T09:18:39;7.38;;;6.55;;
11346;SDS011;5728;42.722;23.258;2023-07-16T09:21:06;14.05;;;6.07;;
11346;SDS011;5728;42.722;23.258;2023-07-16T09:23:33;15.82;;;6.10;;
11346;SDS011;5728;42.722;23.258;2023-07-16T09:26:01;9.93;;;6.45;;
11346;SDS011;5728;42.722;23.258;2023-07-16T09:28:30;9.52;;;6.70;;
11346;SDS011;5728;42.722;23.258;2023-07-16T09:31:02;8.30;;;7.05;;
11346;SDS011;5728;42.722;23.258;2023-07-16T09:33:30;13.82;;;6.88;;
11346;SDS011;5728;42.722;23.258;2023-07-16T09:35:58;9.20;;;7.18;;
11346;SDS011;5728;42.722;23.258;2023-07-16T09:38:25;14.95;;;7.28;;
11346;SDS011;5728;42.722;23.258;2023-07-16T09:40:55;15.85;;;7.05;;
11346;SDS011;5728;42.722;23.258;2023-07-16T09:43:22;10.57;;;6.30;;
11346;SDS011;5728;42.722;23.258;2023-07-16T09:45:49;8.95;;;6.82;;
11346;SDS011;5728;42.722;23.258;2023-07-16T09:48:18;10.68;;;7.50;;
11346;SDS011;5728;42.722;23.258;2023-07-16T09:50:46;7.32;;;6.63;;
11346;SDS011;5728;42.722;23.258;2023-07-16T09:53:18;11.00;;;6.78;;
11346;SDS011;5728;42.722;23.258;2023-07-16T09:55:46;12.93;;;6.60;;
11346;SDS011;5728;42.722;23.258;2023-07-16T09:58:14;9.68;;;6.63;;
11346;SDS011;5728;42.722;23.258;2023-07-16T10:00:45;12.77;;;7.28;;
11346;SDS011;5728;42.722;23.258;2023-07-16T10:03:14;7.85;;;5.90;;
11346;SDS011;5728;42.722;23.258;2023-07-16T10:05:44;8.75;;;6.97;;
11346;SDS011;5728;42.722;23.258;2023-07-16T10:08:17;9.52;;;7.22;;
11346;SDS011;5728;42.722;23.258;2023-07-16T10:10:46;16.02;;;7.38;;
11346;SDS011;5728;42.722;23.258;2023-07-16T10:13:16;14.55;;;7.55;;
11346;SDS011;5728;42.722;23.258;2023-07-16T10:15:52;8.68;;;6.55;;
11346;SDS011;5728;42.722;23.258;2023-07-16T10:18:24;12.38;;;7.90;;
11346;SDS011;5728;42.722;23.258;2023-07-16T10:21:01;9.20;;;7.43;;
11346;SDS011;5728;42.722;23.258;2023-07-16T10:23:36;11.45;;;8.02;;
11346;SDS011;5728;42.722;23.258;2023-07-16T10:26:05;7.78;;;6.63;;
11346;SDS011;5728;42.722;23.258;2023-07-16T10:28:32;19.80;;;7.60;;
11346;SDS011;5728;42.722;23.258;2023-07-16T10:30:59;10.95;;;7.70;;
11346;SDS011;5728;42.722;23.258;2023-07-16T10:33:25;12.10;;;7.38;;
11346;SDS011;5728;42.722;23.258;2023-07-16T10:35:52;14.88;;;7.90;;
11346;SDS011;5728;42.722;23.258;2023-07-16T10:38:20;15.13;;;8.38;;
11346;SDS011;5728;42.722;23.258;2023-07-16T10:40:47;9.77;;;7.00;;
11346;SDS011;5728;42.722;23.258;2023-07-16T10:43:14;13.25;;;7.30;;
11346;SDS011;5728;42.722;23.258;2023-07-16T10:45:42;16.08;;;7.97;;
11346;SDS011;5728;42.722;23.258;2023-07-16T10:48:10;16.75;;;8.15;;
11346;SDS011;5728;42.722;23.258;2023-07-16T10:50:37;12.73;;;7.20;;
11346;SDS011;5728;42.722;23.258;2023-07-16T10:53:04;9.23;;;7.38;;
11346;SDS011;5728;42.722;23.258;2023-07-16T10:55:35;17.13;;;6.32;;
11346;SDS011;5728;42.722;23.258;2023-07-16T10:58:04;10.25;;;7.05;;
11346;SDS011;5728;42.722;23.258;2023-07-16T11:00:32;14.75;;;7.13;;
11346;SDS011;5728;42.722;23.258;2023-07-16T11:03:03;13.90;;;8.50;;
11346;SDS011;5728;42.722;23.258;2023-07-16T11:05:30;13.55;;;7.47;;
11346;SDS011;5728;42.722;23.258;2023-07-16T11:07:56;10.20;;;7.15;;
11346;SDS011;5728;42.722;23.258;2023-07-16T11:10:24;13.00;;;7.55;;
11346;SDS011;5728;42.722;23.258;2023-07-16T11:12:56;12.50;;;7.63;;
11346;SDS011;5728;42.722;23.258;2023-07-16T11:15:30;13.02;;;7.25;;
11346;SDS011;5728;42.722;23.258;2023-07-16T11:17:59;9.52;;;6.95;;
11346;SDS011;5728;42.722;23.258;2023-07-16T11:20:26;11.50;;;7.40;;
11346;SDS011;5728;42.722;23.258;2023-07-16T11:22:57;10.02;;;7.25;;
11346;SDS011;5728;42.722;23.258;2023-07-16T11:25:26;15.40;;;7.80;;
11346;SDS011;5728;42.722;23.258;2023-07-16T11:27:55;9.73;;;7.45;;
11346;SDS011;5728;42.722;23.258;2023-07-16T11:30:24;8.70;;;6.80;;
11346;SDS011;5728;42.722;23.258;2023-07-16T11:32:53;12.20;;;6.47;;
11346;SDS011;5728;42.722;23.258;2023-07-16T11:35:21;19.70;;;8.30;;
11346;SDS011;5728;42.722;23.258;2023-07-16T11:37:49;11.20;;;6.63;;
11346;SDS011;5728;42.722;23.258;2023-07-16T11:40:18;9.63;;;7.32;;
11346;SDS011;5728;42.722;23.258;2023-07-16T11:42:47;10.13;;;6.45;;
11346;SDS011;5728;42.722;23.258;2023-07-16T11:45:19;12.27;;;6.93;;
11346;SDS011;5728;42.722;23.258;2023-07-16T11:47:48;9.57;;;6.88;;
11346;SDS011;5728;42.722;23.258;2023-07-16T11:50:17;10.25;;;6.88;;
11346;SDS011;5728;42.722;23.258;2023-07-16T11:52:52;12.02;;;7.28;;
11346;SDS011;5728;42.722;23.258;2023-07-16T11:55:21;9.88;;;7.00;;
11346;SDS011;5728;42.722;23.258;2023-07-16T11:57:52;14.02;;;7.25;;
11346;SDS011;5728;42.722;23.258;2023-07-16T12:00:21;11.05;;;7.57;;
11346;SDS011;5728;42.722;23.258;2023-07-16T12:02:48;7.57;;;6.68;;
11346;SDS011;5728;42.722;23.258;2023-07-16T12:05:18;9.07;;;7.45;;
11346;SDS011;5728;42.722;23.258;2023-07-16T12:07:49;9.55;;;7.05;;
11346;SDS011;5728;42.722;23.258;2023-07-16T12:10:19;12.90;;;6.80;;
11346;SDS011;5728;42.722;23.258;2023-07-16T12:12:47;14.60;;;6.97;;
11346;SDS011;5728;42.722;23.258;2023-07-16T12:15:14;8.93;;;6.60;;
11346;SDS011;5728;42.722;23.258;2023-07-16T12:17:44;8.40;;;7.07;;
11346;SDS011;5728;42.722;23.258;2023-07-16T12:27:36;11.38;;;7.03;;
11346;SDS011;5728;42.722;23.258;2023-07-16T12:30:07;9.88;;;6.00;;
11346;SDS011;5728;42.722;23.258;2023-07-16T12:32:36;13.73;;;7.30;;
11346;SDS011;5728;42.722;23.258;2023-07-16T12:35:10;11.13;;;7.10;;
11346;SDS011;5728;42.722;23.258;2023-07-16T12:37:37;8.63;;;6.78;;
11346;SDS011;5728;42.722;23.258;2023-07-16T12:40:05;8.90;;;6.90;;
11346;SDS011;5728;42.722;23.258;2023-07-16T12:42:34;12.23;;;6.40;;
11346;SDS011;5728;42.722;23.258;2023-07-16T12:45:03;12.20;;;7.45;;
11346;SDS011;5728;42.722;23.258;2023-07-16T12:47:33;10.95;;;6.63;;
11346;SDS011;5728;42.722;23.258;2023-07-16T12:50:06;11.48;;;7.28;;
11346;SDS011;5728;42.722;23.258;2023-07-16T12:52:34;10.35;;;6.53;;
11346;SDS011;5728;42.722;23.258;2023-07-16T12:55:03;9.57;;;5.88;;
11346;SDS011;5728;42.722;23.258;2023-07-16T12:57:32;9.65;;;6.30;;
11346;SDS011;5728;42.722;23.258;2023-07-16T13:00:00;9.90;;;6.20;;
11346;SDS011;5728;42.722;23.258;2023-07-16T13:02:30;10.03;;;6.73;;
11346;SDS011;5728;42.722;23.258;2023-07-16T13:04:58;12.85;;;6.75;;
11346;SDS011;5728;42.722;23.258;2023-07-16T13:07:28;9.07;;;6.78;;
11346;SDS011;5728;42.722;23.258;2023-07-16T13:09:58;16.23;;;6.20;;
11346;SDS011;5728;42.722;23.258;2023-07-16T13:12:26;7.90;;;6.10;;
11346;SDS011;5728;42.722;23.258;2023-07-16T13:14:56;9.88;;;6.68;;
11346;SDS011;5728;42.722;23.258;2023-07-16T13:17:24;12.48;;;5.88;;
11346;SDS011;5728;42.722;23.258;2023-07-16T13:19:51;7.30;;;6.55;;
11346;SDS011;5728;42.722;23.258;2023-07-16T13:22:21;10.40;;;8.48;;
11346;SDS011;5728;42.722;23.258;2023-07-16T13:24:50;8.40;;;5.68;;
11346;SDS011;5728;42.722;23.258;2023-07-16T13:27:21;11.52;;;6.82;;
11346;SDS011;5728;42.722;23.258;2023-07-16T13:29:49;7.78;;;5.53;;
11346;SDS011;5728;42.722;23.258;2023-07-16T13:32:17;8.05;;;6.40;;
11346;SDS011;5728;42.722;23.258;2023-07-16T13:34:46;7.80;;;5.90;;
11346;SDS011;5728;42.722;23.258;2023-07-16T13:37:14;13.27;;;6.30;;
11346;SDS011;5728;42.722;23.258;2023-07-16T13:39:41;9.15;;;5.72;;
11346;SDS011;5728;42.722;23.258;2023-07-16T13:42:10;13.83;;;5.80;;
11346;SDS011;5728;42.722;23.258;2023-07-16T13:44:38;12.23;;;5.90;;
11346;SDS011;5728;42.722;23.258;2023-07-16T13:47:06;6.25;;;5.32;;
11346;SDS011;5728;42.722;23.258;2023-07-16T13:49:34;10.70;;;5.65;;
11346;SDS011;5728;42.722;23.258;2023-07-16T13:52:01;8.85;;;5.78;;
11346;SDS011;5728;42.722;23.258;2023-07-16T13:54:29;16.27;;;6.05;;
11346;SDS011;5728;42.722;23.258;2023-07-16T13:56:57;8.48;;;6.20;;
11346;SDS011;5728;42.722;23.258;2023-07-16T13:59:26;8.68;;;5.57;;
11346;SDS011;5728;42.722;23.258;2023-07-16T14:01:59;9.85;;;7.15;;
11346;SDS011;5728;42.722;23.258;2023-07-16T14:04:27;9.60;;;5.72;;
11346;SDS011;5728;42.722;23.258;2023-07-16T14:06:55;9.95;;;7.10;;
11346;SDS011;5728;42.722;23.258;2023-07-16T14:09:23;7.45;;;5.15;;
11346;SDS011;5728;42.722;23.258;2023-07-16T14:11:50;8.38;;;5.70;;
11346;SDS011;5728;42.722;23.258;2023-07-16T14:14:20;10.82;;;5.70;;
11346;SDS011;5728;42.722;23.258;2023-07-16T14:16:50;8.63;;;5.85;;
11346;SDS011;5728;42.722;23.258;2023-07-16T14:19:18;7.55;;;5.45;;
11346;SDS011;5728;42.722;23.258;2023-07-16T14:21:45;12.45;;;5.70;;
11346;SDS011;5728;42.722;23.258;2023-07-16T14:24:13;7.18;;;5.28;;
11346;SDS011;5728;42.722;23.258;2023-07-16T14:26:41;10.77;;;5.95;;
11346;SDS011;5728;42.722;23.258;2023-07-16T14:29:08;11.82;;;6.65;;
11346;SDS011;5728;42.722;23.258;2023-07-16T14:31:36;11.95;;;5.93;;
11346;SDS011;5728;42.722;23.258;2023-07-16T14:34:05;11.45;;;6.40;;
11346;SDS011;5728;42.722;23.258;2023-07-16T14:36:33;10.38;;;6.40;;
11346;SDS011;5728;42.722;23.258;2023-07-16T14:39:00;12.43;;;6.55;;
11346;SDS011;5728;42.722;23.258;2023-07-16T14:41:29;8.20;;;6.15;;
11346;SDS011;5728;42.722;23.258;2023-07-16T14:43:56;13.45;;;6.70;;
11346;SDS011;5728;42.722;23.258;2023-07-16T14:46:23;9.05;;;6.95;;
11346;SDS011;5728;42.722;23.258;2023-07-16T14:48:50;8.43;;;6.30;;
11346;SDS011;5728;42.722;23.258;2023-07-16T14:51:23;8.25;;;6.22;;